createdAt,value
2018-08-31T00:09:01.396Z,11.2
2018-08-31T00:14:01.291Z,11.1
2018-08-31T00:29:01.381Z,11.1
2018-08-31T00:34:01.316Z,11.0
2018-08-31T00:49:01.333Z,11.0
2018-08-31T00:59:01.368Z,10.9
2018-08-31T01:09:01.377Z,10.8
2018-08-31T01:24:01.319Z,10.8
2018-08-31T01:39:01.429Z,10.9
2018-08-31T01:45:01.257Z,10.9
2018-08-31T01:55:01.312Z,10.8
2018-08-31T02:00:01.412Z,10.8
2018-08-31T02:05:01.249Z,10.7
2018-08-31T02:10:01.387Z,10.6
2018-08-31T02:15:01.262Z,10.5
2018-08-31T02:30:01.338Z,10.4
2018-08-31T02:45:01.329Z,10.4
2018-08-31T03:00:01.375Z,10.4
2018-08-31T03:05:01.254Z,10.5
2018-08-31T03:15:01.332Z,10.5
2018-08-31T03:20:01.414Z,10.6
2018-08-31T03:30:01.378Z,10.7
2018-08-31T03:40:01.463Z,10.6
2018-08-31T03:45:01.405Z,10.6
2018-08-31T03:55:01.373Z,10.5
2018-08-31T04:00:01.604Z,10.4
2018-08-31T04:10:01.419Z,10.3
2018-08-31T04:15:01.342Z,10.2
2018-08-31T04:25:01.435Z,10.1
2018-08-31T04:30:01.409Z,10.1
2018-08-31T04:40:01.530Z,10.0
2018-08-31T04:45:01.376Z,10.0
2018-08-31T05:00:01.414Z,10.0
2018-08-31T05:15:01.421Z,10.0
2018-08-31T05:20:01.436Z,10.1
2018-08-31T05:25:03.198Z,10.2
2018-08-31T05:30:01.410Z,10.3
2018-08-31T05:35:01.486Z,10.4
2018-08-31T05:40:01.468Z,10.5
2018-08-31T05:45:01.436Z,10.7
2018-08-31T05:50:01.393Z,10.8
2018-08-31T05:55:01.529Z,11.0
2018-08-31T06:00:01.410Z,11.1
2018-08-31T06:05:01.451Z,11.4
2018-08-31T06:10:01.431Z,11.6
2018-08-31T06:15:01.481Z,11.9
2018-08-31T06:20:01.441Z,12.1
2018-08-31T06:25:01.486Z,12.5
2018-08-31T06:30:01.478Z,12.8
2018-08-31T06:35:01.414Z,13.1
2018-08-31T06:40:01.401Z,13.4
2018-08-31T06:45:01.611Z,13.8
2018-08-31T06:50:01.339Z,14.0
2018-08-31T06:55:01.635Z,14.3
2018-08-31T07:00:01.488Z,14.5
2018-08-31T07:05:01.287Z,14.8
2018-08-31T07:10:01.395Z,15.0
2018-08-31T07:15:01.413Z,15.2
2018-08-31T07:20:01.338Z,15.3
2018-08-31T07:25:01.268Z,15.6
2018-08-31T07:30:01.580Z,15.7
2018-08-31T07:35:01.273Z,15.9
2018-08-31T07:40:01.417Z,16.1
2018-08-31T07:45:01.519Z,16.3
2018-08-31T07:50:01.473Z,16.4
2018-08-31T07:55:01.576Z,16.6
2018-08-31T08:00:01.472Z,16.7
2018-08-31T08:05:01.272Z,16.8
2018-08-31T08:15:01.506Z,16.9
2018-08-31T08:20:01.345Z,17.0
2018-08-31T08:25:01.277Z,17.2
2018-08-31T08:30:01.502Z,17.5
2018-08-31T08:35:01.303Z,17.7
2018-08-31T08:40:01.404Z,17.8
2018-08-31T08:45:01.548Z,17.9
2018-08-31T08:55:01.355Z,18.0
2018-08-31T09:00:01.491Z,18.0
2018-08-31T09:05:01.325Z,18.1
2018-08-31T09:10:01.401Z,18.2
2018-08-31T09:15:01.404Z,18.3
2018-08-31T09:20:01.407Z,18.4
2018-08-31T09:25:01.272Z,18.7
2018-08-31T09:30:01.598Z,19.0
2018-08-31T09:35:01.369Z,19.1
2018-08-31T09:40:01.332Z,19.2
2018-08-31T09:45:01.404Z,19.3
2018-08-31T09:50:01.383Z,19.2
2018-08-31T09:55:01.364Z,19.1
2018-08-31T10:00:01.489Z,19.3
2018-08-31T10:10:01.391Z,19.1
2018-08-31T10:15:01.429Z,19.2
2018-08-31T10:20:01.402Z,19.3
2018-08-31T10:25:01.281Z,19.1
2018-08-31T10:30:01.675Z,19.1
2018-08-31T10:35:01.269Z,19.4
2018-08-31T10:45:01.408Z,19.4
2018-08-31T10:50:01.424Z,19.6
2018-08-31T10:55:01.364Z,19.7
2018-08-31T11:00:01.526Z,19.5
2018-08-31T11:10:01.320Z,19.6
2018-08-31T11:15:01.592Z,19.6
2018-08-31T11:20:01.388Z,19.8
2018-08-31T11:25:03.081Z,20.2
2018-08-31T11:30:01.376Z,20.3
2018-08-31T11:35:06.289Z,20.6
2018-08-31T11:40:01.586Z,20.9
2018-08-31T11:45:01.475Z,21.2
2018-08-31T11:50:01.396Z,21.4
2018-08-31T11:55:01.445Z,21.6
2018-08-31T12:00:01.863Z,21.7
2018-08-31T12:05:01.258Z,21.9
2018-08-31T12:10:01.380Z,22.0
2018-08-31T12:15:01.414Z,22.1
2018-08-31T12:20:01.335Z,22.2
2018-08-31T12:25:01.460Z,22.1
2018-08-31T12:30:02.584Z,22.0
2018-08-31T12:45:01.541Z,22.0
2018-08-31T12:50:01.397Z,22.2
2018-08-31T12:55:01.415Z,22.3
2018-08-31T13:00:02.650Z,22.4
2018-08-31T13:05:01.255Z,22.5
2018-08-31T13:10:01.332Z,22.6
2018-08-31T13:15:01.397Z,22.6
2018-08-31T13:25:01.266Z,22.4
2018-08-31T13:30:03.473Z,22.1
2018-08-31T13:45:01.669Z,21.9
2018-08-31T13:50:01.469Z,22.0
2018-08-31T13:55:01.379Z,22.1
2018-08-31T14:00:01.627Z,21.8
2018-08-31T14:10:05.578Z,22.0
2018-08-31T14:15:01.410Z,22.0
2018-08-31T14:25:01.386Z,22.1
2018-08-31T14:30:02.943Z,22.0
2018-08-31T14:35:01.257Z,21.8
2018-08-31T14:45:03.543Z,21.7
2018-08-31T14:50:02.592Z,21.5
2018-08-31T14:55:01.301Z,21.4
2018-08-31T15:00:01.548Z,21.3
2018-08-31T15:05:01.339Z,21.2
2018-08-31T15:15:01.498Z,21.1
2018-08-31T15:20:01.401Z,21.0
2018-08-31T15:30:01.399Z,20.9
2018-08-31T15:35:01.270Z,20.7
2018-08-31T15:40:01.398Z,20.6
2018-08-31T15:45:01.464Z,20.6
2018-08-31T15:55:01.433Z,20.5
2018-08-31T16:00:02.633Z,20.6
2018-08-31T16:10:01.394Z,20.4
2018-08-31T16:15:01.417Z,20.1
2018-08-31T16:20:01.403Z,19.9
2018-08-31T16:25:01.427Z,19.7
2018-08-31T16:30:01.920Z,19.6
2018-08-31T16:35:01.403Z,19.5
2018-08-31T16:45:01.475Z,19.4
2018-08-31T17:00:01.551Z,19.4
2018-08-31T17:05:01.409Z,19.3
2018-08-31T17:15:01.474Z,19.2
2018-08-31T17:25:03.246Z,19.1
2018-08-31T17:30:01.414Z,19.0
2018-08-31T17:35:01.490Z,18.9
2018-08-31T17:40:01.297Z,18.8
2018-08-31T17:45:01.470Z,18.7
2018-08-31T17:50:01.462Z,18.6
2018-08-31T17:55:01.454Z,18.5
2018-08-31T18:00:01.422Z,18.4
2018-08-31T18:05:01.473Z,18.3
2018-08-31T18:10:01.478Z,18.2
2018-08-31T18:15:01.431Z,18.0
2018-08-31T18:20:01.481Z,17.9
2018-08-31T18:26:01.431Z,17.7
2018-08-31T18:31:01.391Z,17.6
2018-08-31T18:36:01.408Z,17.5
2018-08-31T18:46:01.600Z,17.4
2018-08-31T18:56:01.439Z,17.3
2018-08-31T19:01:01.407Z,17.2
2018-08-31T19:07:01.601Z,17.1
2018-08-31T19:17:01.476Z,17.0
2018-08-31T19:22:01.258Z,16.9
2018-08-31T19:32:01.355Z,16.8
2018-08-31T19:42:01.334Z,16.7
2018-08-31T19:57:01.467Z,16.7
2018-08-31T20:12:01.388Z,16.6
2018-08-31T20:22:01.382Z,16.5
2018-08-31T20:27:01.381Z,16.4
2018-08-31T20:32:01.255Z,16.3
2018-08-31T20:42:01.389Z,16.1
2018-08-31T20:47:01.389Z,16.0
2018-08-31T20:52:01.337Z,15.9
2018-08-31T20:57:01.356Z,15.7
2018-08-31T21:02:01.304Z,15.5
2018-08-31T21:07:01.359Z,15.4
2018-08-31T21:12:01.264Z,15.2
2018-08-31T21:17:01.311Z,15.1
2018-08-31T21:22:01.271Z,14.9
2018-08-31T21:27:02.413Z,14.8
2018-08-31T21:37:01.391Z,14.7
2018-08-31T21:42:01.295Z,14.8
2018-08-31T21:57:04.550Z,14.8
2018-08-31T22:12:01.324Z,14.8
2018-08-31T22:27:01.322Z,14.8
2018-08-31T22:37:01.391Z,14.7
2018-08-31T22:52:01.400Z,14.6
2018-08-31T23:07:01.352Z,14.5
2018-08-31T23:17:01.369Z,14.4
2018-08-31T23:22:01.261Z,14.3
2018-08-31T23:27:01.388Z,14.2
2018-08-31T23:32:01.323Z,14.1
2018-08-31T23:37:01.321Z,14.0
2018-08-31T23:42:01.261Z,13.9
2018-08-31T23:52:01.329Z,13.8
2018-08-31T23:57:01.440Z,13.7
